Impacts METAR Board
IDs:

KEDC - Austin/Executive Arp, TX, US

Updated at: 1300 UTC 20 Oct 2021
Potential Impact None Slight Moderate High
Time 20/01Z 20/02Z 20/03Z 20/04Z 20/05Z 20/06Z 20/07Z 20/08Z 20/09Z 20/10Z 20/11Z 20/12Z 20/13Z
Temp73 72 70 68 68 66 64 64 66 64 64 64 64
Dewpt59 59 61 63 63 63 63 64 64 64 64 64 64
Altim30.00 30.01 30.02 30.04 30.05 30.05 30.06 30.06 30.06 30.07 30.08 30.08 30.08
VIS10 10 10 10 10 10 10 10 10 10 7 4 3
CIG-- -- -- -- -- -- -- -- -- -- -- -- --
Cover--------------------------
FltCatVFRVFRVFRVFRVFRVFRVFRVFRVFRVFRVFRMVFRMVFR
WX----------------------BRBR
WDir150150150170180160000001700
WSpd6 6 6 6 5 3 0 0 0 0 0 3 0
WGst-- -- -- -- -- -- -- -- -- -- -- -- --
Raw hourly METARs
KEDC 200055Z AUTO 15006KT 10SM 23/15 A3000 RMK AO2
KEDC 200155Z AUTO 15006KT 10SM 22/15 A3001 RMK AO2
KEDC 200255Z AUTO 15006KT 10SM 21/16 A3002 RMK AO2
KEDC 200355Z AUTO 17006KT 10SM 20/17 A3004 RMK AO2
KEDC 200455Z AUTO 18005KT 10SM 20/17 A3005 RMK AO2
KEDC 200555Z AUTO 16003KT 10SM 19/17 A3005 RMK AO2
KEDC 200655Z AUTO 00000KT 10SM 18/17 A3006 RMK AO2
KEDC 200755Z AUTO 00000KT 10SM 18/18 A3006 RMK AO2
KEDC 200855Z AUTO 00000KT 10SM 19/18 A3006 RMK AO2
KEDC 200955Z AUTO 00000KT 10SM 18/18 A3007 RMK AO2
KEDC 201055Z AUTO 00000KT 7SM 18/18 A3008 RMK AO2
KEDC 201155Z AUTO 17003KT 4SM BR 18/18 A3008 RMK AO2
KEDC 201255Z AUTO 00000KT 3SM BR 18/18 A3008 RMK AO2